Wind From: 11-12-2017 06:00 Until: 12-12-2017 06:00 warning for: Wind Level: Orange info button

Power and phone distribution networks may be disrupted for relatively long periods., Roofs and chimneys can be damaged. , Tree branches may break. , Vehicles can be deported. , Traffic may be disrupted, particularly on secondary roads in forest areas. Limit your trips. , Limit your speed in highway driving, especially if you drive a vehicle or hitch sensitive to wind. , Do not go for walks in forests or along the coast., In town, be vigilant against possible falling objects., Do not work on roofs and do not touch any electrical line fallen on the ground., Store or secure sensitive objects to wind or likely to be damaged., Always install power generators outside buildings. 


Meteo18 Weather Cam more information Meteo18 Weather Cam


Thunder radar more information blitzortung!


Rain radar more information rain snow radar


Visit our other weather sites:

Template documentation
and downloads

And another site



Weather Underground History page Text

Daily Summary for July 7, 2017 Units:  Both    English   Metric
« Previous Day
Next Day »
Daily Weekly Monthly Yearly Custom
  High: Low: Average:
Temperature: 89.4 °F /  31.9 °C 67.3 °F /  19.6 °C 79.3 °F /  26.3 °C
Dew Point: 70.7 °F /  21.5 °C 64.6 °F /  18.1 °C 67.3 °F /  19.6 °C
Humidity: 92 % 45 % 68 %
Wind Speed: 8 mph /  12.9 km/h - 2.7 mph /  4.3 km/h
Wind Gust: 17 mph /  27.4 km/h - -
Wind:- - WSW
Pressure: 30.1 in /  1019.9 hPa 30.1 in /  1017.5 hPa -
Precipitation: 0 in /  0.0 mm    
Historical Graphs
 
 
Tabular Data for July 7, 2017
Time Temperature Dew Point Pressure Wind Wind Speed Wind Gust Humidity Rainfall Rate (Hourly)
00:02 78.1 °F /  25.6 °C 64.9 °F /  18.3 °C 30.1 in /  1018.2 hPa Calm     64 % 0 in /  0.0 mm
00:07 77.9 °F /  25.5 °C 65.1 °F /  18.4 °C 30.1 in /  1017.8 hPa Calm     65 % 0 in /  0.0 mm
00:12 77.7 °F /  25.4 °C 65.5 °F /  18.6 °C 30.1 in /  1017.8 hPa SSW 3 mph /  4.8 km/h 3 mph /  4.8 km/h 66 % 0 in /  0.0 mm
00:17 77.4 °F /  25.2 °C 65.5 °F /  18.6 °C 30.1 in /  1018.2 hPa SSW 4 mph /  6.4 km/h 4 mph /  6.4 km/h 67 % 0 in /  0.0 mm
00:22 76.8 °F /  24.9 °C 65.5 °F /  18.6 °C 30.1 in /  1018.2 hPa SW 3 mph /  4.8 km/h 5 mph /  8.0 km/h 68 % 0 in /  0.0 mm
00:32 76.3 °F /  24.6 °C 65.8 °F /  18.8 °C 30.1 in /  1018.5 hPa SW 5 mph /  8.0 km/h 5 mph /  8.0 km/h 70 % 0 in /  0.0 mm
00:42 76.5 °F /  24.7 °C 66 °F /  18.9 °C 30.1 in /  1018.5 hPa SW 4 mph /  6.4 km/h 6 mph /  9.7 km/h 70 % 0 in /  0.0 mm
00:47 76.8 °F /  24.9 °C 66.2 °F /  19.0 °C 30.1 in /  1018.5 hPa SW 5 mph /  8.0 km/h 8 mph /  12.9 km/h 70 % 0 in /  0.0 mm
00:52 77 °F /  25.0 °C 66.4 °F /  19.1 °C 30.1 in /  1018.5 hPa WSW 4 mph /  6.4 km/h 8 mph /  12.9 km/h 70 % 0 in /  0.0 mm
00:57 77.4 °F /  25.2 °C 66.7 °F /  19.3 °C 30.1 in /  1018.2 hPa WSW 5 mph /  8.0 km/h 8 mph /  12.9 km/h 70 % 0 in /  0.0 mm
01:02 77.5 °F /  25.3 °C 66.9 °F /  19.4 °C 30.1 in /  1018.2 hPa West 3 mph /  4.8 km/h 10 mph /  16.1 km/h 70 % 0 in /  0.0 mm
01:07 77.5 °F /  25.3 °C 66.9 °F /  19.4 °C 30.1 in /  1018.5 hPa WSW 4 mph /  6.4 km/h 10 mph /  16.1 km/h 70 % 0 in /  0.0 mm
01:12 77.5 °F /  25.3 °C 66.9 °F /  19.4 °C 30.1 in /  1018.5 hPa West 4 mph /  6.4 km/h 10 mph /  16.1 km/h 70 % 0 in /  0.0 mm
01:17 77.5 °F /  25.3 °C 66.9 °F /  19.4 °C 30.1 in /  1018.2 hPa WSW 2 mph /  3.2 km/h 10 mph /  16.1 km/h 70 % 0 in /  0.0 mm
01:22 77.5 °F /  25.3 °C 66.9 °F /  19.4 °C 30.1 in /  1018.2 hPa SW 5 mph /  8.0 km/h 8 mph /  12.9 km/h 70 % 0 in /  0.0 mm
01:27 77.4 °F /  25.2 °C 66.7 °F /  19.3 °C 30.1 in /  1018.2 hPa WNW 4 mph /  6.4 km/h 8 mph /  12.9 km/h 70 % 0 in /  0.0 mm
01:32 77.2 °F /  25.1 °C 67.1 °F /  19.5 °C 30.1 in /  1018.2 hPa WSW 3 mph /  4.8 km/h 8 mph /  12.9 km/h 71 % 0 in /  0.0 mm
01:37 76.8 °F /  24.9 °C 66.7 °F /  19.3 °C 30.1 in /  1018.2 hPa West 2 mph /  3.2 km/h 8 mph /  12.9 km/h 71 % 0 in /  0.0 mm
01:42 76.6 °F /  24.8 °C 66.9 °F /  19.4 °C 30.1 in /  1018.2 hPa West 2 mph /  3.2 km/h 6 mph /  9.7 km/h 72 % 0 in /  0.0 mm
01:47 76.5 °F /  24.7 °C 66.7 °F /  19.3 °C 30.1 in /  1018.2 hPa WNW 1 mph /  1.6 km/h 4 mph /  6.4 km/h 72 % 0 in /  0.0 mm
01:52 76.3 °F /  24.6 °C 66.9 °F /  19.4 °C 30.1 in /  1018.5 hPa WSW 1 mph /  1.6 km/h 3 mph /  4.8 km/h 73 % 0 in /  0.0 mm
01:57 76.3 °F /  24.6 °C 66.9 °F /  19.4 °C 30.1 in /  1018.5 hPa SW 1 mph /  1.6 km/h 3 mph /  4.8 km/h 73 % 0 in /  0.0 mm
02:02 76.1 °F /  24.5 °C 66.7 °F /  19.3 °C 30.1 in /  1018.5 hPa SW 3 mph /  4.8 km/h 3 mph /  4.8 km/h 73 % 0 in /  0.0 mm
02:12 75.9 °F /  24.4 °C 67.1 °F /  19.5 °C 30.1 in /  1018.5 hPa Calm   4 mph /  6.4 km/h 74 % 0 in /  0.0 mm
02:17 75.9 °F /  24.4 °C 67.1 °F /  19.5 °C 30.1 in /  1018.5 hPa Calm   4 mph /  6.4 km/h 74 % 0 in /  0.0 mm
02:22 75.9 °F /  24.4 °C 67.1 °F /  19.5 °C 30.1 in /  1018.2 hPa Calm   4 mph /  6.4 km/h 74 % 0 in /  0.0 mm
02:27 75.7 °F /  24.3 °C 66.9 °F /  19.4 °C 30.1 in /  1018.2 hPa Calm   3 mph /  4.8 km/h 74 % 0 in /  0.0 mm
02:32 75.6 °F /  24.2 °C 66.7 °F /  19.3 °C 30.1 in /  1018.5 hPa Calm   2 mph /  3.2 km/h 74 % 0 in /  0.0 mm
02:42 75.4 °F /  24.1 °C 66.9 °F /  19.4 °C 30.1 in /  1018.8 hPa WSW 2 mph /  3.2 km/h 2 mph /  3.2 km/h 75 % 0 in /  0.0 mm
02:47 75.2 °F /  24.0 °C 67.1 °F /  19.5 °C 30.1 in /  1018.8 hPa Calm   2 mph /  3.2 km/h 76 % 0 in /  0.0 mm
02:52 75 °F /  23.9 °C 66.9 °F /  19.4 °C 30.1 in /  1018.8 hPa WSW 1 mph /  1.6 km/h 2 mph /  3.2 km/h 76 % 0 in /  0.0 mm
02:57 74.8 °F /  23.8 °C 66.7 °F /  19.3 °C 30.1 in /  1018.8 hPa Calm   4 mph /  6.4 km/h 76 % 0 in /  0.0 mm
03:02 74.7 °F /  23.7 °C 66.9 °F /  19.4 °C 30.1 in /  1018.8 hPa Calm   4 mph /  6.4 km/h 77 % 0 in /  0.0 mm
03:07 74.7 °F /  23.7 °C 66.9 °F /  19.4 °C 30.1 in /  1018.5 hPa Calm   4 mph /  6.4 km/h 77 % 0 in /  0.0 mm
03:12 74.7 °F /  23.7 °C 66.9 °F /  19.4 °C 30.1 in /  1018.5 hPa Calm     77 % 0 in /  0.0 mm
03:17 74.7 °F /  23.7 °C 66.9 °F /  19.4 °C 30.1 in /  1018.5 hPa Calm     77 % 0 in /  0.0 mm
03:22 74.5 °F /  23.6 °C 66.7 °F /  19.3 °C 30.1 in /  1018.5 hPa Calm     77 % 0 in /  0.0 mm
03:27 74.5 °F /  23.6 °C 67.1 °F /  19.5 °C 30.1 in /  1018.8 hPa West 1 mph /  1.6 km/h   78 % 0 in /  0.0 mm
03:32 74.1 °F /  23.4 °C 66.7 °F /  19.3 °C 30.1 in /  1018.8 hPa Calm   3 mph /  4.8 km/h 78 % 0 in /  0.0 mm
03:37 74.1 °F /  23.4 °C 67.1 °F /  19.5 °C 30.1 in /  1018.8 hPa SW 1 mph /  1.6 km/h 3 mph /  4.8 km/h 79 % 0 in /  0.0 mm
03:42 74.1 °F /  23.4 °C 67.1 °F /  19.5 °C 30.1 in /  1018.5 hPa Calm   3 mph /  4.8 km/h 79 % 0 in /  0.0 mm
03:47 73.9 °F /  23.3 °C 67.1 °F /  19.5 °C 30.1 in /  1018.5 hPa Calm   3 mph /  4.8 km/h 79 % 0 in /  0.0 mm
03:52 73.8 °F /  23.2 °C 66.9 °F /  19.4 °C 30.1 in /  1018.5 hPa Calm   3 mph /  4.8 km/h 79 % 0 in /  0.0 mm
03:57 73.6 °F /  23.1 °C 66.7 °F /  19.3 °C 30.1 in /  1018.5 hPa Calm   2 mph /  3.2 km/h 79 % 0 in /  0.0 mm
04:02 73.2 °F /  22.9 °C 66.7 °F /  19.3 °C 30.1 in /  1018.5 hPa SSW 1 mph /  1.6 km/h 1 mph /  1.6 km/h 80 % 0 in /  0.0 mm
04:07 73 °F /  22.8 °C 66.6 °F /  19.2 °C 30.1 in /  1018.5 hPa Calm   3 mph /  4.8 km/h 80 % 0 in /  0.0 mm
04:12 73 °F /  22.8 °C 66.9 °F /  19.4 °C 30.1 in /  1018.5 hPa Calm   3 mph /  4.8 km/h 81 % 0 in /  0.0 mm
04:17 72.7 °F /  22.6 °C 66.6 °F /  19.2 °C 30.1 in /  1018.5 hPa Calm   3 mph /  4.8 km/h 81 % 0 in /  0.0 mm
04:22 72.3 °F /  22.4 °C 66.6 °F /  19.2 °C 30.1 in /  1018.5 hPa Calm   1 mph /  1.6 km/h 82 % 0 in /  0.0 mm
04:32 71.6 °F /  22.0 °C 66.6 °F /  19.2 °C 30.1 in /  1018.5 hPa Calm   1 mph /  1.6 km/h 84 % 0 in /  0.0 mm
04:37 71.2 °F /  21.8 °C 66.6 °F /  19.2 °C 30.1 in /  1018.5 hPa Calm   1 mph /  1.6 km/h 85 % 0 in /  0.0 mm
04:42 71.2 °F /  21.8 °C 66.6 °F /  19.2 °C 30.1 in /  1018.5 hPa Calm   1 mph /  1.6 km/h 85 % 0 in /  0.0 mm
04:47 71.1 °F /  21.7 °C 66.4 °F /  19.1 °C 30.1 in /  1018.8 hPa Calm   1 mph /  1.6 km/h 85 % 0 in /  0.0 mm
04:52 71.2 °F /  21.8 °C 66.9 °F /  19.4 °C 30.1 in /  1018.8 hPa Calm     86 % 0 in /  0.0 mm
04:57 71.1 °F /  21.7 °C 66.4 °F /  19.1 °C 30.1 in /  1018.8 hPa Calm     85 % 0 in /  0.0 mm
05:02 70.9 °F /  21.6 °C 66.6 °F /  19.2 °C 30.1 in /  1018.5 hPa Calm     86 % 0 in /  0.0 mm
05:07 70.5 °F /  21.4 °C 66.2 °F /  19.0 °C 30.1 in /  1018.8 hPa Calm     86 % 0 in /  0.0 mm
05:12 70.3 °F /  21.3 °C 66 °F /  18.9 °C 30.1 in /  1018.8 hPa Calm     86 % 0 in /  0.0 mm
05:17 70.2 °F /  21.2 °C 66 °F /  18.9 °C 30.1 in /  1018.8 hPa Calm     87 % 0 in /  0.0 mm
05:22 70.2 °F /  21.2 °C 66 °F /  18.9 °C 30.1 in /  1018.8 hPa Calm     87 % 0 in /  0.0 mm
05:27 70.2 °F /  21.2 °C 66 °F /  18.9 °C 30.1 in /  1018.5 hPa Calm     87 % 0 in /  0.0 mm
05:32 70 °F /  21.1 °C 66.2 °F /  19.0 °C 30.1 in /  1018.8 hPa Calm     88 % 0 in /  0.0 mm
05:37 69.8 °F /  21.0 °C 66 °F /  18.9 °C 30.1 in /  1018.8 hPa Calm     88 % 0 in /  0.0 mm
05:42 69.6 °F /  20.9 °C 65.8 °F /  18.8 °C 30.1 in /  1018.5 hPa Calm     88 % 0 in /  0.0 mm
05:47 69.6 °F /  20.9 °C 65.8 °F /  18.8 °C 30.1 in /  1018.5 hPa Calm     88 % 0 in /  0.0 mm
05:52 69.3 °F /  20.7 °C 65.5 °F /  18.6 °C 30.1 in /  1018.5 hPa Calm     88 % 0 in /  0.0 mm
05:57 69.1 °F /  20.6 °C 65.3 °F /  18.5 °C 30.1 in /  1018.5 hPa Calm     88 % 0 in /  0.0 mm
06:02 68.7 °F /  20.4 °C 65.3 °F /  18.5 °C 30.1 in /  1018.8 hPa Calm     89 % 0 in /  0.0 mm
06:07 68.5 °F /  20.3 °C 65.1 °F /  18.4 °C 30.1 in /  1018.5 hPa Calm     89 % 0 in /  0.0 mm
06:12 68.5 °F /  20.3 °C 65.5 °F /  18.6 °C 30.1 in /  1018.8 hPa Calm     90 % 0 in /  0.0 mm
06:17 68.4 °F /  20.2 °C 65.3 °F /  18.5 °C 30.1 in /  1018.8 hPa Calm     90 % 0 in /  0.0 mm
06:22 68.2 °F /  20.1 °C 65.1 °F /  18.4 °C 30.1 in /  1018.8 hPa Calm     90 % 0 in /  0.0 mm
06:27 68 °F /  20.0 °C 64.9 °F /  18.3 °C 30.1 in /  1018.8 hPa Calm     90 % 0 in /  0.0 mm
06:32 67.8 °F /  19.9 °C 65.1 °F /  18.4 °C 30.1 in /  1018.8 hPa Calm     91 % 0 in /  0.0 mm
06:42 67.5 °F /  19.7 °C 64.8 °F /  18.2 °C 30.1 in /  1019.2 hPa Calm   1 mph /  1.6 km/h 91 % 0 in /  0.0 mm
06:47 67.3 °F /  19.6 °C 64.6 °F /  18.1 °C 30.1 in /  1019.2 hPa Calm   1 mph /  1.6 km/h 91 % 0 in /  0.0 mm
06:52 67.3 °F /  19.6 °C 64.6 °F /  18.1 °C 30.1 in /  1019.2 hPa Calm   1 mph /  1.6 km/h 91 % 0 in /  0.0 mm
06:57 67.5 °F /  19.7 °C 65.1 °F /  18.4 °C 30.1 in /  1019.2 hPa Calm   2 mph /  3.2 km/h 92 % 0 in /  0.0 mm
07:02 67.6 °F /  19.8 °C 64.9 °F /  18.3 °C 30.1 in /  1019.2 hPa SSW 1 mph /  1.6 km/h 2 mph /  3.2 km/h 91 % 0 in /  0.0 mm
07:07 67.6 °F /  19.8 °C 64.9 °F /  18.3 °C 30.1 in /  1019.2 hPa Calm   3 mph /  4.8 km/h 91 % 0 in /  0.0 mm
07:12 67.6 °F /  19.8 °C 64.9 °F /  18.3 °C 30.1 in /  1019.2 hPa Calm   3 mph /  4.8 km/h 91 % 0 in /  0.0 mm
07:17 68 °F /  20.0 °C 65.3 °F /  18.5 °C 30.1 in /  1019.2 hPa Calm   3 mph /  4.8 km/h 91 % 0 in /  0.0 mm
07:22 68.4 °F /  20.2 °C 65.7 °F /  18.7 °C 30.1 in /  1019.2 hPa SSW 1 mph /  1.6 km/h 3 mph /  4.8 km/h 91 % 0 in /  0.0 mm
07:27 68.5 °F /  20.3 °C 65.8 °F /  18.8 °C 30.1 in /  1019.2 hPa SSW 2 mph /  3.2 km/h 2 mph /  3.2 km/h 91 % 0 in /  0.0 mm
07:32 69.1 °F /  20.6 °C 66.4 °F /  19.1 °C 30.1 in /  1019.2 hPa SSW 2 mph /  3.2 km/h 3 mph /  4.8 km/h 91 % 0 in /  0.0 mm
07:42 70 °F /  21.1 °C 66.9 °F /  19.4 °C 30.1 in /  1019.2 hPa SSW 2 mph /  3.2 km/h 4 mph /  6.4 km/h 90 % 0 in /  0.0 mm
07:47 70.3 °F /  21.3 °C 67.3 °F /  19.6 °C 30.1 in /  1019.2 hPa SSW 2 mph /  3.2 km/h 4 mph /  6.4 km/h 90 % 0 in /  0.0 mm
07:52 70.9 °F /  21.6 °C 67.5 °F /  19.7 °C 30.1 in /  1019.2 hPa SW 1 mph /  1.6 km/h 4 mph /  6.4 km/h 89 % 0 in /  0.0 mm
07:57 71.2 °F /  21.8 °C 67.8 °F /  19.9 °C 30.1 in /  1019.2 hPa Calm   4 mph /  6.4 km/h 89 % 0 in /  0.0 mm
08:02 71.6 °F /  22.0 °C 67.5 °F /  19.7 °C 30.1 in /  1019.5 hPa SW 2 mph /  3.2 km/h 4 mph /  6.4 km/h 87 % 0 in /  0.0 mm
08:12 72.5 °F /  22.5 °C 68 °F /  20.0 °C 30.1 in /  1019.5 hPa South 1 mph /  1.6 km/h 3 mph /  4.8 km/h 86 % 0 in /  0.0 mm
08:17 72.9 °F /  22.7 °C 68 °F /  20.0 °C 30.1 in /  1019.5 hPa SW 3 mph /  4.8 km/h 3 mph /  4.8 km/h 85 % 0 in /  0.0 mm
08:27 73.6 °F /  23.1 °C 68.2 °F /  20.1 °C 30.1 in /  1019.5 hPa Calm   4 mph /  6.4 km/h 83 % 0 in /  0.0 mm
08:32 73.9 °F /  23.3 °C 68.2 °F /  20.1 °C 30.1 in /  1019.5 hPa SW 2 mph /  3.2 km/h 4 mph /  6.4 km/h 82 % 0 in /  0.0 mm
08:37 73.9 °F /  23.3 °C 68.2 °F /  20.1 °C 30.1 in /  1019.5 hPa SSW 2 mph /  3.2 km/h 5 mph /  8.0 km/h 82 % 0 in /  0.0 mm
08:42 73.9 °F /  23.3 °C 68.2 °F /  20.1 °C 30.1 in /  1019.5 hPa South 2 mph /  3.2 km/h 5 mph /  8.0 km/h 82 % 0 in /  0.0 mm
08:47 74.1 °F /  23.4 °C 68.5 °F /  20.3 °C 30.1 in /  1019.5 hPa SW 2 mph /  3.2 km/h 5 mph /  8.0 km/h 83 % 0 in /  0.0 mm
08:52 74.3 °F /  23.5 °C 68.4 °F /  20.2 °C 30.1 in /  1019.5 hPa SSW 1 mph /  1.6 km/h 5 mph /  8.0 km/h 82 % 0 in /  0.0 mm
08:57 74.5 °F /  23.6 °C 68.5 °F /  20.3 °C 30.1 in /  1019.5 hPa SW 3 mph /  4.8 km/h 5 mph /  8.0 km/h 82 % 0 in /  0.0 mm
09:02 74.8 °F /  23.8 °C 68.9 °F /  20.5 °C 30.1 in /  1019.5 hPa SW 1 mph /  1.6 km/h 4 mph /  6.4 km/h 82 % 0 in /  0.0 mm
09:07 75.4 °F /  24.1 °C 69.1 °F /  20.6 °C 30.1 in /  1019.5 hPa SW 5 mph /  8.0 km/h 5 mph /  8.0 km/h 81 % 0 in /  0.0 mm
09:12 75.4 °F /  24.1 °C 69.1 °F /  20.6 °C 30.1 in /  1019.5 hPa SSW 4 mph /  6.4 km/h 7 mph /  11.3 km/h 81 % 0 in /  0.0 mm
09:17 75.7 °F /  24.3 °C 69.4 °F /  20.8 °C 30.1 in /  1019.5 hPa SW 3 mph /  4.8 km/h 7 mph /  11.3 km/h 81 % 0 in /  0.0 mm
09:22 75.6 °F /  24.2 °C 68.9 °F /  20.5 °C 30.1 in /  1019.5 hPa SW 7 mph /  11.3 km/h 9 mph /  14.5 km/h 80 % 0 in /  0.0 mm
09:27 75.4 °F /  24.1 °C 68.7 °F /  20.4 °C 30.1 in /  1019.9 hPa SW 7 mph /  11.3 km/h 9 mph /  14.5 km/h 80 % 0 in /  0.0 mm
09:32 75.2 °F /  24.0 °C 68.9 °F /  20.5 °C 30.1 in /  1019.9 hPa SW 6 mph /  9.7 km/h 10 mph /  16.1 km/h 81 % 0 in /  0.0 mm
09:37 75 °F /  23.9 °C 68.7 °F /  20.4 °C 30.1 in /  1019.9 hPa SSW 3 mph /  4.8 km/h 10 mph /  16.1 km/h 81 % 0 in /  0.0 mm
09:42 75 °F /  23.9 °C 68.7 °F /  20.4 °C 30.1 in /  1019.9 hPa South 3 mph /  4.8 km/h 10 mph /  16.1 km/h 81 % 0 in /  0.0 mm
09:47 75.2 °F /  24.0 °C 68.9 °F /  20.5 °C 30.1 in /  1019.9 hPa SW 5 mph /  8.0 km/h 9 mph /  14.5 km/h 81 % 0 in /  0.0 mm
09:52 75.4 °F /  24.1 °C 69.1 °F /  20.6 °C 30.1 in /  1019.9 hPa SW 3 mph /  4.8 km/h 8 mph /  12.9 km/h 81 % 0 in /  0.0 mm
09:57 75.7 °F /  24.3 °C 69.1 °F /  20.6 °C 30.1 in /  1019.9 hPa WSW 5 mph /  8.0 km/h 8 mph /  12.9 km/h 80 % 0 in /  0.0 mm
10:02 76.3 °F /  24.6 °C 69.6 °F /  20.9 °C 30.1 in /  1019.9 hPa SSW 5 mph /  8.0 km/h 8 mph /  12.9 km/h 80 % 0 in /  0.0 mm
10:07 76.8 °F /  24.9 °C 69.8 °F /  21.0 °C 30.1 in /  1019.9 hPa West 1 mph /  1.6 km/h 8 mph /  12.9 km/h 79 % 0 in /  0.0 mm
10:12 76.8 °F /  24.9 °C 69.1 °F /  20.6 °C 30.1 in /  1019.9 hPa West 6 mph /  9.7 km/h 8 mph /  12.9 km/h 77 % 0 in /  0.0 mm
10:17 76.6 °F /  24.8 °C 69.3 °F /  20.7 °C 30.1 in /  1019.9 hPa SSW 4 mph /  6.4 km/h 11 mph /  17.7 km/h 78 % 0 in /  0.0 mm
10:22 76.6 °F /  24.8 °C 69.3 °F /  20.7 °C 30.1 in /  1019.9 hPa SW 6 mph /  9.7 km/h 11 mph /  17.7 km/h 78 % 0 in /  0.0 mm
10:27 76.8 °F /  24.9 °C 69.1 °F /  20.6 °C 30.1 in /  1019.9 hPa SW 6 mph /  9.7 km/h 11 mph /  17.7 km/h 77 % 0 in /  0.0 mm
10:32 76.8 °F /  24.9 °C 69.1 °F /  20.6 °C 30.1 in /  1019.9 hPa WSW 6 mph /  9.7 km/h 10 mph /  16.1 km/h 77 % 0 in /  0.0 mm
10:42 76.8 °F /  24.9 °C 69.4 °F /  20.8 °C 30.1 in /  1019.9 hPa WSW 4 mph /  6.4 km/h 11 mph /  17.7 km/h 78 % 0 in /  0.0 mm
10:52 77.5 °F /  25.3 °C 69.8 °F /  21.0 °C 30.1 in /  1019.5 hPa SW 5 mph /  8.0 km/h 11 mph /  17.7 km/h 77 % 0 in /  0.0 mm
10:57 78.3 °F /  25.7 °C 70 °F /  21.1 °C 30.1 in /  1019.5 hPa West 4 mph /  6.4 km/h 11 mph /  17.7 km/h 76 % 0 in /  0.0 mm
11:07 78.6 °F /  25.9 °C 70 °F /  21.1 °C 30.1 in /  1019.5 hPa West 3 mph /  4.8 km/h 11 mph /  17.7 km/h 75 % 0 in /  0.0 mm
11:12 79 °F /  26.1 °C 70 °F /  21.1 °C 30.1 in /  1019.9 hPa West 3 mph /  4.8 km/h 11 mph /  17.7 km/h 74 % 0 in /  0.0 mm
11:17 79.2 °F /  26.2 °C 69.8 °F /  21.0 °C 30.1 in /  1019.9 hPa WNW 3 mph /  4.8 km/h 9 mph /  14.5 km/h 73 % 0 in /  0.0 mm
11:22 79.2 °F /  26.2 °C 69.8 °F /  21.0 °C 30.1 in /  1019.9 hPa West 2 mph /  3.2 km/h 9 mph /  14.5 km/h 73 % 0 in /  0.0 mm
11:27 79.2 °F /  26.2 °C 69.8 °F /  21.0 °C 30.1 in /  1019.9 hPa West 6 mph /  9.7 km/h 9 mph /  14.5 km/h 73 % 0 in /  0.0 mm
11:32 79.3 °F /  26.3 °C 70 °F /  21.1 °C 30.1 in /  1019.9 hPa West 5 mph /  8.0 km/h 9 mph /  14.5 km/h 73 % 0 in /  0.0 mm
11:37 79.5 °F /  26.4 °C 69.6 °F /  20.9 °C 30.1 in /  1019.9 hPa West 3 mph /  4.8 km/h 9 mph /  14.5 km/h 72 % 0 in /  0.0 mm
11:42 79.9 °F /  26.6 °C 70 °F /  21.1 °C 30.1 in /  1019.9 hPa West 3 mph /  4.8 km/h 9 mph /  14.5 km/h 72 % 0 in /  0.0 mm
11:47 80.2 °F /  26.8 °C 70 °F /  21.1 °C 30.1 in /  1019.9 hPa SW 6 mph /  9.7 km/h 9 mph /  14.5 km/h 71 % 0 in /  0.0 mm
11:52 80.4 °F /  26.9 °C 69.8 °F /  21.0 °C 30.1 in /  1019.9 hPa SSW 3 mph /  4.8 km/h 9 mph /  14.5 km/h 70 % 0 in /  0.0 mm
11:57 80.8 °F /  27.1 °C 70.5 °F /  21.4 °C 30.1 in /  1019.9 hPa West 3 mph /  4.8 km/h 9 mph /  14.5 km/h 71 % 0 in /  0.0 mm
12:02 80.8 °F /  27.1 °C 69.6 °F /  20.9 °C 30.1 in /  1019.9 hPa WSW 8 mph /  12.9 km/h 9 mph /  14.5 km/h 69 % 0 in /  0.0 mm
12:12 81.1 °F /  27.3 °C 70 °F /  21.1 °C 30.1 in /  1019.9 hPa West 5 mph /  8.0 km/h 12 mph /  19.3 km/h 69 % 0 in /  0.0 mm
12:17 80.8 °F /  27.1 °C 70.2 °F /  21.2 °C 30.1 in /  1019.9 hPa West 3 mph /  4.8 km/h 11 mph /  17.7 km/h 70 % 0 in /  0.0 mm
12:22 80.8 °F /  27.1 °C 70.2 °F /  21.2 °C 30.1 in /  1019.9 hPa West 2 mph /  3.2 km/h 11 mph /  17.7 km/h 70 % 0 in /  0.0 mm
12:27 81 °F /  27.2 °C 69.8 °F /  21.0 °C 30.1 in /  1019.9 hPa West 3 mph /  4.8 km/h 9 mph /  14.5 km/h 69 % 0 in /  0.0 mm
12:32 81 °F /  27.2 °C 69.8 °F /  21.0 °C 30.1 in /  1019.9 hPa WSW 6 mph /  9.7 km/h 9 mph /  14.5 km/h 69 % 0 in /  0.0 mm
12:42 81.9 °F /  27.7 °C 70.7 °F /  21.5 °C 30.1 in /  1019.9 hPa WNW 5 mph /  8.0 km/h 10 mph /  16.1 km/h 69 % 0 in /  0.0 mm
12:47 82.2 °F /  27.9 °C 70.2 °F /  21.2 °C 30.1 in /  1019.9 hPa South 4 mph /  6.4 km/h 10 mph /  16.1 km/h 67 % 0 in /  0.0 mm
12:52 82.4 °F /  28.0 °C 70 °F /  21.1 °C 30.1 in /  1019.9 hPa WNW 4 mph /  6.4 km/h 9 mph /  14.5 km/h 66 % 0 in /  0.0 mm
12:57 82.8 °F /  28.2 °C 70.2 °F /  21.2 °C 30.1 in /  1019.9 hPa West 2 mph /  3.2 km/h 9 mph /  14.5 km/h 66 % 0 in /  0.0 mm
13:02 82.9 °F /  28.3 °C 70 °F /  21.1 °C 30.1 in /  1019.9 hPa WSW 2 mph /  3.2 km/h 9 mph /  14.5 km/h 65 % 0 in /  0.0 mm
13:07 82.9 °F /  28.3 °C 70 °F /  21.1 °C 30.1 in /  1019.9 hPa NW 2 mph /  3.2 km/h 9 mph /  14.5 km/h 65 % 0 in /  0.0 mm
13:12 82.8 °F /  28.2 °C 70.2 °F /  21.2 °C 30.1 in /  1019.9 hPa WNW 3 mph /  4.8 km/h 8 mph /  12.9 km/h 66 % 0 in /  0.0 mm
13:17 82.8 °F /  28.2 °C 70.2 °F /  21.2 °C 30.1 in /  1019.5 hPa West 6 mph /  9.7 km/h 9 mph /  14.5 km/h 66 % 0 in /  0.0 mm
13:22 83.3 °F /  28.5 °C 70.3 °F /  21.3 °C 30.1 in /  1019.5 hPa SW 2 mph /  3.2 km/h 9 mph /  14.5 km/h 65 % 0 in /  0.0 mm
13:27 84 °F /  28.9 °C 70 °F /  21.1 °C 30.1 in /  1019.5 hPa WNW 5 mph /  8.0 km/h 10 mph /  16.1 km/h 63 % 0 in /  0.0 mm
13:32 84 °F /  28.9 °C 69.1 °F /  20.6 °C 30.1 in /  1019.5 hPa West 6 mph /  9.7 km/h 10 mph /  16.1 km/h 61 % 0 in /  0.0 mm
13:37 84 °F /  28.9 °C 69.1 °F /  20.6 °C 30.1 in /  1019.5 hPa WSW 1 mph /  1.6 km/h 10 mph /  16.1 km/h 61 % 0 in /  0.0 mm
13:42 84.6 °F /  29.2 °C 68.7 °F /  20.4 °C 30.1 in /  1019.5 hPa SSW 5 mph /  8.0 km/h 9 mph /  14.5 km/h 59 % 0 in /  0.0 mm
13:52 85.3 °F /  29.6 °C 68.9 °F /  20.5 °C 30.1 in /  1019.5 hPa WNW 2 mph /  3.2 km/h 10 mph /  16.1 km/h 58 % 0 in /  0.0 mm
13:57 85.6 °F /  29.8 °C 68.7 °F /  20.4 °C 30.1 in /  1019.5 hPa WSW 5 mph /  8.0 km/h 12 mph /  19.3 km/h 57 % 0 in /  0.0 mm
14:02 86.4 °F /  30.2 °C 69.8 °F /  21.0 °C 30.1 in /  1019.2 hPa East 1 mph /  1.6 km/h 12 mph /  19.3 km/h 58 % 0 in /  0.0 mm
14:07 86.5 °F /  30.3 °C 70.5 °F /  21.4 °C 30.1 in /  1019.2 hPa SSW 6 mph /  9.7 km/h 12 mph /  19.3 km/h 59 % 0 in /  0.0 mm
14:12 86.4 °F /  30.2 °C 69.8 °F /  21.0 °C 30.1 in /  1019.2 hPa NNW 4 mph /  6.4 km/h 11 mph /  17.7 km/h 58 % 0 in /  0.0 mm
14:17 86.4 °F /  30.2 °C 68.4 °F /  20.2 °C 30.1 in /  1019.2 hPa SSW 6 mph /  9.7 km/h 11 mph /  17.7 km/h 55 % 0 in /  0.0 mm
14:22 86.4 °F /  30.2 °C 69.3 °F /  20.7 °C 30.1 in /  1019.2 hPa West 5 mph /  8.0 km/h 11 mph /  17.7 km/h 57 % 0 in /  0.0 mm
14:27 86.4 °F /  30.2 °C 68.7 °F /  20.4 °C 30.1 in /  1019.2 hPa WSW 4 mph /  6.4 km/h 11 mph /  17.7 km/h 56 % 0 in /  0.0 mm
14:32 86.4 °F /  30.2 °C 69.3 °F /  20.7 °C 30.1 in /  1019.2 hPa SSW 8 mph /  12.9 km/h 8 mph /  12.9 km/h 57 % 0 in /  0.0 mm
14:37 86.5 °F /  30.3 °C 69.4 °F /  20.8 °C 30.1 in /  1019.2 hPa WSW 3 mph /  4.8 km/h 17 mph /  27.4 km/h 57 % 0 in /  0.0 mm
14:42 86.7 °F /  30.4 °C 69.1 °F /  20.6 °C 30.1 in /  1019.2 hPa ESE 8 mph /  12.9 km/h 17 mph /  27.4 km/h 56 % 0 in /  0.0 mm
14:47 86.9 °F /  30.5 °C 68.7 °F /  20.4 °C 30.1 in /  1019.2 hPa WSW 7 mph /  11.3 km/h 17 mph /  27.4 km/h 55 % 0 in /  0.0 mm
14:52 87.3 °F /  30.7 °C 68.5 °F /  20.3 °C 30.1 in /  1018.8 hPa South 5 mph /  8.0 km/h 11 mph /  17.7 km/h 54 % 0 in /  0.0 mm
14:57 87.3 °F /  30.7 °C 69.1 °F /  20.6 °C 30.1 in /  1018.8 hPa West 5 mph /  8.0 km/h 11 mph /  17.7 km/h 55 % 0 in /  0.0 mm
15:02 87.4 °F /  30.8 °C 68.2 °F /  20.1 °C 30.1 in /  1018.8 hPa WSW 7 mph /  11.3 km/h 10 mph /  16.1 km/h 53 % 0 in /  0.0 mm
15:12 87.1 °F /  30.6 °C 66.7 °F /  19.3 °C 30.1 in /  1018.8 hPa WNW 6 mph /  9.7 km/h 14 mph /  22.5 km/h 51 % 0 in /  0.0 mm
15:17 87.4 °F /  30.8 °C 67.1 °F /  19.5 °C 30.1 in /  1018.8 hPa WNW 4 mph /  6.4 km/h 14 mph /  22.5 km/h 51 % 0 in /  0.0 mm
15:22 87.4 °F /  30.8 °C 67.1 °F /  19.5 °C 30.1 in /  1018.8 hPa NW 2 mph /  3.2 km/h 15 mph /  24.1 km/h 51 % 0 in /  0.0 mm
15:27 87.6 °F /  30.9 °C 67.8 °F /  19.9 °C 30.1 in /  1018.8 hPa West 8 mph /  12.9 km/h 15 mph /  24.1 km/h 52 % 0 in /  0.0 mm
15:32 87.4 °F /  30.8 °C 68.7 °F /  20.4 °C 30.1 in /  1018.8 hPa WNW 6 mph /  9.7 km/h 15 mph /  24.1 km/h 54 % 0 in /  0.0 mm
15:37 88.2 °F /  31.2 °C 68.4 °F /  20.2 °C 30.1 in /  1018.8 hPa West 7 mph /  11.3 km/h 11 mph /  17.7 km/h 52 % 0 in /  0.0 mm
15:42 87.4 °F /  30.8 °C 67.1 °F /  19.5 °C 30.1 in /  1018.8 hPa SW 1 mph /  1.6 km/h 12 mph /  19.3 km/h 51 % 0 in /  0.0 mm
15:47 88 °F /  31.1 °C 69.3 °F /  20.7 °C 30.1 in /  1018.8 hPa WNW 8 mph /  12.9 km/h 12 mph /  19.3 km/h 54 % 0 in /  0.0 mm
15:52 87.8 °F /  31.0 °C 67.5 °F /  19.7 °C 30.1 in /  1018.8 hPa West 6 mph /  9.7 km/h 15 mph /  24.1 km/h 51 % 0 in /  0.0 mm
15:57 88 °F /  31.1 °C 68.2 °F /  20.1 °C 30.1 in /  1018.8 hPa West 5 mph /  8.0 km/h 15 mph /  24.1 km/h 52 % 0 in /  0.0 mm
16:02 88.2 °F /  31.2 °C 67.8 °F /  19.9 °C 30.1 in /  1018.8 hPa SW 8 mph /  12.9 km/h 15 mph /  24.1 km/h 51 % 0 in /  0.0 mm
16:07 87.4 °F /  30.8 °C 69.3 °F /  20.7 °C 30.1 in /  1018.8 hPa South 5 mph /  8.0 km/h 12 mph /  19.3 km/h 55 % 0 in /  0.0 mm
16:12 88 °F /  31.1 °C 68.2 °F /  20.1 °C 30.1 in /  1018.5 hPa WNW 2 mph /  3.2 km/h 10 mph /  16.1 km/h 52 % 0 in /  0.0 mm
16:17 88.3 °F /  31.3 °C 68.5 °F /  20.3 °C 30.1 in /  1018.8 hPa WNW 8 mph /  12.9 km/h 14 mph /  22.5 km/h 52 % 0 in /  0.0 mm
16:22 88 °F /  31.1 °C 68.2 °F /  20.1 °C 30.1 in /  1018.8 hPa SW 3 mph /  4.8 km/h 14 mph /  22.5 km/h 52 % 0 in /  0.0 mm
16:27 88 °F /  31.1 °C 68.7 °F /  20.4 °C 30.1 in /  1018.5 hPa WNW 7 mph /  11.3 km/h 14 mph /  22.5 km/h 53 % 0 in /  0.0 mm
16:32 88 °F /  31.1 °C 68.2 °F /  20.1 °C 30.1 in /  1018.5 hPa SSW 6 mph /  9.7 km/h 13 mph /  20.9 km/h 52 % 0 in /  0.0 mm
16:37 88.3 °F /  31.3 °C 68.5 °F /  20.3 °C 30.1 in /  1018.5 hPa NW 5 mph /  8.0 km/h 13 mph /  20.9 km/h 52 % 0 in /  0.0 mm
16:42 88.7 °F /  31.5 °C 68.2 °F /  20.1 °C 30.1 in /  1018.5 hPa WSW 5 mph /  8.0 km/h 13 mph /  20.9 km/h 51 % 0 in /  0.0 mm
16:47 88.7 °F /  31.5 °C 67.6 °F /  19.8 °C 30.1 in /  1018.5 hPa West 7 mph /  11.3 km/h 15 mph /  24.1 km/h 50 % 0 in /  0.0 mm
16:52 88.2 °F /  31.2 °C 67.8 °F /  19.9 °C 30.1 in /  1018.5 hPa SW 3 mph /  4.8 km/h 15 mph /  24.1 km/h 51 % 0 in /  0.0 mm
16:57 88.5 °F /  31.4 °C 67.5 °F /  19.7 °C 30.1 in /  1018.5 hPa WSW 5 mph /  8.0 km/h 15 mph /  24.1 km/h 50 % 0 in /  0.0 mm
17:02 88.9 °F /  31.6 °C 66.6 °F /  19.2 °C 30.1 in /  1018.5 hPa WNW 7 mph /  11.3 km/h 13 mph /  20.9 km/h 48 % 0 in /  0.0 mm
17:07 89.1 °F /  31.7 °C 66.2 °F /  19.0 °C 30.1 in /  1018.2 hPa WSW 5 mph /  8.0 km/h 13 mph /  20.9 km/h 47 % 0 in /  0.0 mm
17:12 88.5 °F /  31.4 °C 66.4 °F /  19.1 °C 30.1 in /  1018.5 hPa WSW 5 mph /  8.0 km/h 13 mph /  20.9 km/h 48 % 0 in /  0.0 mm
17:17 88.3 °F /  31.3 °C 66.7 °F /  19.3 °C 30.1 in /  1018.2 hPa WNW 4 mph /  6.4 km/h 13 mph /  20.9 km/h 49 % 0 in /  0.0 mm
17:22 88.9 °F /  31.6 °C 66.6 °F /  19.2 °C 30.1 in /  1018.2 hPa SW 5 mph /  8.0 km/h 10 mph /  16.1 km/h 48 % 0 in /  0.0 mm
17:32 89.1 °F /  31.7 °C 64.9 °F /  18.3 °C 30.1 in /  1018.2 hPa NW 5 mph /  8.0 km/h 15 mph /  24.1 km/h 45 % 0 in /  0.0 mm
17:37 89.1 °F /  31.7 °C 65.7 °F /  18.7 °C 30.1 in /  1017.8 hPa West 6 mph /  9.7 km/h 15 mph /  24.1 km/h 46 % 0 in /  0.0 mm
17:42 89.2 °F /  31.8 °C 65.1 °F /  18.4 °C 30.1 in /  1017.8 hPa NW 4 mph /  6.4 km/h 15 mph /  24.1 km/h 45 % 0 in /  0.0 mm
17:47 89.2 °F /  31.8 °C 65.7 °F /  18.7 °C 30.1 in /  1017.8 hPa WNW 5 mph /  8.0 km/h 13 mph /  20.9 km/h 46 % 0 in /  0.0 mm
17:52 89.2 °F /  31.8 °C 65.1 °F /  18.4 °C 30.1 in /  1017.8 hPa WNW 7 mph /  11.3 km/h 11 mph /  17.7 km/h 45 % 0 in /  0.0 mm
17:57 89.1 °F /  31.7 °C 64.9 °F /  18.3 °C 30.1 in /  1017.8 hPa West 8 mph /  12.9 km/h 12 mph /  19.3 km/h 45 % 0 in /  0.0 mm
18:02 88.9 °F /  31.6 °C 64.8 °F /  18.2 °C 30.1 in /  1017.8 hPa WSW 5 mph /  8.0 km/h 14 mph /  22.5 km/h 45 % 0 in /  0.0 mm
18:07 88.9 °F /  31.6 °C 64.8 °F /  18.2 °C 30.1 in /  1017.8 hPa WNW 7 mph /  11.3 km/h 14 mph /  22.5 km/h 45 % 0 in /  0.0 mm
18:12 88.9 °F /  31.6 °C 65.5 °F /  18.6 °C 30.1 in /  1017.8 hPa WSW 3 mph /  4.8 km/h 14 mph /  22.5 km/h 46 % 0 in /  0.0 mm
18:17 89.4 °F /  31.9 °C 65.3 °F /  18.5 °C 30.1 in /  1017.8 hPa WNW 8 mph /  12.9 km/h 14 mph /  22.5 km/h 45 % 0 in /  0.0 mm
18:22 89.1 °F /  31.7 °C 64.9 °F /  18.3 °C 30.1 in /  1017.8 hPa WNW 6 mph /  9.7 km/h 14 mph /  22.5 km/h 45 % 0 in /  0.0 mm
18:32 89.1 °F /  31.7 °C 66.2 °F /  19.0 °C 30.1 in /  1017.8 hPa WSW 6 mph /  9.7 km/h 12 mph /  19.3 km/h 47 % 0 in /  0.0 mm
18:37 89.1 °F /  31.7 °C 65.7 °F /  18.7 °C 30.1 in /  1017.8 hPa West 6 mph /  9.7 km/h 11 mph /  17.7 km/h 46 % 0 in /  0.0 mm
18:42 88.9 °F /  31.6 °C 66 °F /  18.9 °C 30.1 in /  1017.8 hPa NW 4 mph /  6.4 km/h 11 mph /  17.7 km/h 47 % 0 in /  0.0 mm
18:47 88.3 °F /  31.3 °C 66.2 °F /  19.0 °C 30.1 in /  1017.8 hPa West 3 mph /  4.8 km/h 13 mph /  20.9 km/h 48 % 0 in /  0.0 mm
18:52 88.3 °F /  31.3 °C 66.2 °F /  19.0 °C 30.1 in /  1017.8 hPa WNW 3 mph /  4.8 km/h 13 mph /  20.9 km/h 48 % 0 in /  0.0 mm
18:57 88.2 °F /  31.2 °C 66 °F /  18.9 °C 30.1 in /  1017.8 hPa WNW 5 mph /  8.0 km/h 13 mph /  20.9 km/h 48 % 0 in /  0.0 mm
19:02 88.2 °F /  31.2 °C 66 °F /  18.9 °C 30.1 in /  1017.5 hPa WNW 6 mph /  9.7 km/h 11 mph /  17.7 km/h 48 % 0 in /  0.0 mm
19:07 88.2 °F /  31.2 °C 66 °F /  18.9 °C 30.1 in /  1017.5 hPa WNW 6 mph /  9.7 km/h 11 mph /  17.7 km/h 48 % 0 in /  0.0 mm
19:12 88 °F /  31.1 °C 65.8 °F /  18.8 °C 30.1 in /  1017.5 hPa WNW 8 mph /  12.9 km/h 13 mph /  20.9 km/h 48 % 0 in /  0.0 mm
19:17 88 °F /  31.1 °C 65.8 °F /  18.8 °C 30.1 in /  1017.5 hPa NW 5 mph /  8.0 km/h 13 mph /  20.9 km/h 48 % 0 in /  0.0 mm
19:22 88 °F /  31.1 °C 65.8 °F /  18.8 °C 30.1 in /  1017.5 hPa WNW 3 mph /  4.8 km/h 13 mph /  20.9 km/h 48 % 0 in /  0.0 mm
19:27 88.2 °F /  31.2 °C 66.6 °F /  19.2 °C 30.1 in /  1017.5 hPa WNW 1 mph /  1.6 km/h 11 mph /  17.7 km/h 49 % 0 in /  0.0 mm
19:32 88 °F /  31.1 °C 65.8 °F /  18.8 °C 30.1 in /  1017.5 hPa WNW 6 mph /  9.7 km/h 11 mph /  17.7 km/h 48 % 0 in /  0.0 mm
19:37 87.8 °F /  31.0 °C 65.7 °F /  18.7 °C 30.1 in /  1017.5 hPa West 4 mph /  6.4 km/h 9 mph /  14.5 km/h 48 % 0 in /  0.0 mm
19:42 87.6 °F /  30.9 °C 65.5 °F /  18.6 °C 30.1 in /  1017.5 hPa WNW 2 mph /  3.2 km/h 9 mph /  14.5 km/h 48 % 0 in /  0.0 mm
19:47 87.6 °F /  30.9 °C 66 °F /  18.9 °C 30.1 in /  1017.5 hPa WNW 2 mph /  3.2 km/h 9 mph /  14.5 km/h 49 % 0 in /  0.0 mm
19:52 87.6 °F /  30.9 °C 66 °F /  18.9 °C 30.1 in /  1017.5 hPa WNW 5 mph /  8.0 km/h 9 mph /  14.5 km/h 49 % 0 in /  0.0 mm
19:57 87.6 °F /  30.9 °C 66 °F /  18.9 °C 30.1 in /  1017.5 hPa WNW 8 mph /  12.9 km/h 8 mph /  12.9 km/h 49 % 0 in /  0.0 mm
20:02 87.4 °F /  30.8 °C 66.6 °F /  19.2 °C 30.1 in /  1017.5 hPa WNW 3 mph /  4.8 km/h 8 mph /  12.9 km/h 50 % 0 in /  0.0 mm
20:12 87.6 °F /  30.9 °C 66.7 °F /  19.3 °C 30.1 in /  1017.8 hPa NNW 3 mph /  4.8 km/h 8 mph /  12.9 km/h 50 % 0 in /  0.0 mm
20:17 87.3 °F /  30.7 °C 66.9 °F /  19.4 °C 30.1 in /  1017.8 hPa Calm   7 mph /  11.3 km/h 51 % 0 in /  0.0 mm
20:22 87.3 °F /  30.7 °C 66.9 °F /  19.4 °C 30.1 in /  1017.8 hPa WNW 1 mph /  1.6 km/h 6 mph /  9.7 km/h 51 % 0 in /  0.0 mm
20:27 87.3 °F /  30.7 °C 66.9 °F /  19.4 °C 30.1 in /  1017.8 hPa WNW 1 mph /  1.6 km/h 6 mph /  9.7 km/h 51 % 0 in /  0.0 mm
20:32 87.3 °F /  30.7 °C 66.9 °F /  19.4 °C 30.1 in /  1017.8 hPa North 6 mph /  9.7 km/h 6 mph /  9.7 km/h 51 % 0 in /  0.0 mm
20:37 86.5 °F /  30.3 °C 66.7 °F /  19.3 °C 30.1 in /  1017.8 hPa NNE 4 mph /  6.4 km/h 7 mph /  11.3 km/h 52 % 0 in /  0.0 mm
20:42 86.2 °F /  30.1 °C 66.6 °F /  19.2 °C 30.1 in /  1017.8 hPa North 4 mph /  6.4 km/h 7 mph /  11.3 km/h 52 % 0 in /  0.0 mm
20:47 85.8 °F /  29.9 °C 66.7 °F /  19.3 °C 30.1 in /  1017.8 hPa NW 1 mph /  1.6 km/h 7 mph /  11.3 km/h 53 % 0 in /  0.0 mm
20:52 85.6 °F /  29.8 °C 66.6 °F /  19.2 °C 30.1 in /  1017.8 hPa NNW 1 mph /  1.6 km/h 6 mph /  9.7 km/h 53 % 0 in /  0.0 mm
20:57 85.5 °F /  29.7 °C 66.4 °F /  19.1 °C 30.1 in /  1017.8 hPa NNW 2 mph /  3.2 km/h 6 mph /  9.7 km/h 53 % 0 in /  0.0 mm
21:02 85.3 °F /  29.6 °C 66.7 °F /  19.3 °C 30.1 in /  1017.8 hPa NW 1 mph /  1.6 km/h 3 mph /  4.8 km/h 54 % 0 in /  0.0 mm
21:07 84.9 °F /  29.4 °C 66.4 °F /  19.1 °C 30.1 in /  1017.8 hPa Calm   3 mph /  4.8 km/h 54 % 0 in /  0.0 mm
21:17 84.4 °F /  29.1 °C 66.4 °F /  19.1 °C 30.1 in /  1017.8 hPa Calm   1 mph /  1.6 km/h 55 % 0 in /  0.0 mm
21:22 84 °F /  28.9 °C 66.2 °F /  19.0 °C 30.1 in /  1017.8 hPa Calm     55 % 0 in /  0.0 mm
21:32 83.1 °F /  28.4 °C 65.8 °F /  18.8 °C 30.1 in /  1017.8 hPa Calm     56 % 0 in /  0.0 mm
21:37 82.8 °F /  28.2 °C 66 °F /  18.9 °C 30.1 in /  1018.2 hPa Calm     57 % 0 in /  0.0 mm
21:42 82.2 °F /  27.9 °C 66.4 °F /  19.1 °C 30.1 in /  1018.2 hPa Calm     59 % 0 in /  0.0 mm
21:47 81.7 °F /  27.6 °C 66.4 °F /  19.1 °C 30.1 in /  1018.2 hPa Calm     60 % 0 in /  0.0 mm
21:52 80.6 °F /  27.0 °C 65.8 °F /  18.8 °C 30.1 in /  1018.2 hPa Calm     61 % 0 in /  0.0 mm
21:57 80.2 °F /  26.8 °C 66.6 °F /  19.2 °C 30.1 in /  1018.5 hPa Calm     63 % 0 in /  0.0 mm
22:02 79.7 °F /  26.5 °C 66.4 °F /  19.1 °C 30.1 in /  1018.5 hPa Calm     64 % 0 in /  0.0 mm
22:12 79.2 °F /  26.2 °C 66.4 °F /  19.1 °C 30.1 in /  1018.5 hPa Calm     65 % 0 in /  0.0 mm
22:17 78.6 °F /  25.9 °C 66.4 °F /  19.1 °C 30.1 in /  1018.5 hPa Calm     66 % 0 in /  0.0 mm
22:22 78.3 °F /  25.7 °C 66.4 °F /  19.1 °C 30.1 in /  1018.5 hPa Calm     67 % 0 in /  0.0 mm
22:27 77.5 °F /  25.3 °C 66.2 °F /  19.0 °C 30.1 in /  1018.5 hPa Calm     68 % 0 in /  0.0 mm
22:32 77.2 °F /  25.1 °C 66.2 °F /  19.0 °C 30.1 in /  1018.8 hPa Calm     69 % 0 in /  0.0 mm
22:37 77 °F /  25.0 °C 66.4 °F /  19.1 °C 30.1 in /  1018.8 hPa Calm     70 % 0 in /  0.0 mm
22:42 76.6 °F /  24.8 °C 66.6 °F /  19.2 °C 30.1 in /  1018.8 hPa Calm     71 % 0 in /  0.0 mm
22:52 76.5 °F /  24.7 °C 66.7 °F /  19.3 °C 30.1 in /  1018.5 hPa Calm     72 % 0 in /  0.0 mm
22:57 75.9 °F /  24.4 °C 66.2 °F /  19.0 °C 30.1 in /  1018.8 hPa Calm     72 % 0 in /  0.0 mm
23:02 75.6 °F /  24.2 °C 66.4 °F /  19.1 °C 30.1 in /  1018.5 hPa Calm   2 mph /  3.2 km/h 73 % 0 in /  0.0 mm
23:07 75.4 °F /  24.1 °C 66.6 °F /  19.2 °C 30.1 in /  1018.8 hPa Calm   2 mph /  3.2 km/h 74 % 0 in /  0.0 mm
23:12 75.4 °F /  24.1 °C 66.6 °F /  19.2 °C 30.1 in /  1018.8 hPa NNW 1 mph /  1.6 km/h 2 mph /  3.2 km/h 74 % 0 in /  0.0 mm
23:17 75 °F /  23.9 °C 66.6 °F /  19.2 °C 30.1 in /  1018.8 hPa Calm   3 mph /  4.8 km/h 75 % 0 in /  0.0 mm
23:22 74.8 °F /  23.8 °C 66.4 °F /  19.1 °C 30.1 in /  1018.8 hPa Calm   3 mph /  4.8 km/h 75 % 0 in /  0.0 mm
23:27 74.8 °F /  23.8 °C 66.4 °F /  19.1 °C 30.1 in /  1018.8 hPa Calm   2 mph /  3.2 km/h 75 % 0 in /  0.0 mm
23:32 74.7 °F /  23.7 °C 66.2 °F /  19.0 °C 30.1 in /  1018.8 hPa Calm     75 % 0 in /  0.0 mm
23:37 74.5 °F /  23.6 °C 66.4 °F /  19.1 °C 30.1 in /  1018.8 hPa Calm     76 % 0 in /  0.0 mm
23:42 74.1 °F /  23.4 °C 66 °F /  18.9 °C 30.1 in /  1018.8 hPa Calm     76 % 0 in /  0.0 mm
23:47 73.9 °F /  23.3 °C 65.8 °F /  18.8 °C 30.1 in /  1018.8 hPa Calm     76 % 0 in /  0.0 mm
23:52 73.8 °F /  23.2 °C 66 °F /  18.9 °C 30.1 in /  1018.8 hPa Calm     77 % 0 in /  0.0 mm
23:57 73.4 °F /  23.0 °C 66.2 °F /  19.0 °C 30.1 in /  1018.5 hPa Calm     78 % 0 in /  0.0 mm
Meteo18
Compliments of Weather Underground - 4 mb

Script developed by  Jim McMurry - jmcmurry@mwt.net Adapted for the template by  Wim van der Kuil - Leuven-Template.eu

You find our weather info also at:

European Weather Network

Weather Underground

Equipment we use:

Weather-station
Davis Vue

Weather-program
Meteohub

Weather-server
Raspberry PI 2 B+

Provider
1 and 1

Davis Vue

Meteohub

Raspberry PI 2 B+

1 and 1